Main page
METAR-TAF:

METAR-TAF

Airports :

Turku Airport

Turku, Finland

latitude: 60-31N, longitude: 022-16E, elevation: 49 m

Current weather observation

The report was made 15 minutes ago, at 06:20 UTC
Wind 6 kt from the North, varying between Northwest and Northeast
Temperature 3°C
Humidity 87%
Pressure 1002 hPa
Visibility 10 km or more
Scattered clouds at a height of 900 ft
Broken clouds at a height of 2100 ft

METAR: EFTU 170620Z AUTO 35006KT 310V040 9999 SCT009 BKN021 03/01 Q1002

Time: 09:35 (06:35 UTC)

Forecast

The report was made 1 hour and 1 minutes ago, at 05:34 UTC
Forecast valid from 17 at 06 UTC to 18 at 06 UTC
Wind 6 kt from the North
Visibility 10 km or more
Few clouds at a height of 800 ft
Broken clouds at a height of 2000 ft
Temporary
from 17 at 06 UTC to 17 at 09 UTC
Broken clouds at a height of 800 ft

TAF: EFTU 170534Z 1706/1806 36006KT 9999 FEW008 BKN020 TEMPO 1706/1709 BKN008

Weather observations and forecasts of more than 4000 airports (METAR and TAF reports).

The available stations are represented by yellow and red dots on the map.

Hover mouse over dot to see the name of the station.

Then click to see weather observations and forecasts.

To change the map : click on the green buttons with a black cross to zoom in, on the green button with a dash to zoom out, or on the green arrows for adjacent maps.


METAR-TAF: